createdAt,value
2023-03-31T00:10:10.390Z,8.70
2023-03-31T00:20:23.193Z,9.57
2023-03-31T00:30:28.110Z,8.23
2023-03-31T00:40:32.727Z,8.38
2023-03-31T00:50:41.554Z,8.50
2023-03-31T01:00:48.352Z,8.93
2023-03-31T01:10:57.064Z,8.38
2023-03-31T01:21:47.605Z,8.20
2023-03-31T01:31:52.188Z,9.40
2023-03-31T01:42:13.894Z,8.52
2023-03-31T01:52:24.537Z,8.48
2023-03-31T02:02:38.024Z,8.48
2023-03-31T02:12:44.820Z,7.95
2023-03-31T02:22:55.115Z,8.95
2023-03-31T02:32:58.348Z,8.15
2023-03-31T02:43:06.339Z,8.65
2023-03-31T02:53:37.793Z,9.20
2023-03-31T03:03:46.343Z,9.00
2023-03-31T03:13:54.368Z,7.90
2023-03-31T03:24:00.028Z,9.20
2023-03-31T03:34:02.308Z,8.83
2023-03-31T03:44:05.146Z,8.98
2023-03-31T03:54:10.054Z,8.70
2023-03-31T04:04:17.246Z,9.48
2023-03-31T04:14:19.708Z,9.77
2023-03-31T04:24:22.500Z,9.32
2023-03-31T04:34:35.594Z,10.40
2023-03-31T04:44:40.536Z,9.98
2023-03-31T04:54:42.869Z,10.88
2023-03-31T05:04:46.953Z,10.60
2023-03-31T05:14:49.151Z,11.18
2023-03-31T05:24:53.978Z,9.98
2023-03-31T05:34:57.643Z,15.60
2023-03-31T05:45:02.769Z,11.02
2023-03-31T05:55:11.942Z,10.90
2023-03-31T06:05:14.347Z,11.68
2023-03-31T06:15:21.306Z,11.82
2023-03-31T06:25:43.849Z,10.65
2023-03-31T06:36:00.172Z,11.35
2023-03-31T06:46:04.957Z,10.98
2023-03-31T06:56:11.171Z,11.02
2023-03-31T07:06:19.653Z,11.15
2023-03-31T07:16:25.547Z,11.40
2023-03-31T07:26:33.366Z,12.13
2023-03-31T07:36:40.571Z,11.77
2023-03-31T07:46:48.192Z,12.75
2023-03-31T07:56:50.917Z,13.52
2023-03-31T08:07:04.343Z,11.75
2023-03-31T08:17:09.051Z,10.55
2023-03-31T08:27:15.770Z,8.90
2023-03-31T08:37:18.238Z,10.77
2023-03-31T08:47:23.469Z,8.90
2023-03-31T08:57:31.898Z,9.23
2023-03-31T09:07:41.895Z,8.10
2023-03-31T09:17:52.107Z,7.20
2023-03-31T09:27:57.260Z,6.95
2023-03-31T09:38:03.552Z,5.85
2023-03-31T09:48:21.241Z,6.05
2023-03-31T09:58:25.394Z,5.80
2023-03-31T10:08:45.075Z,6.13
2023-03-31T10:18:54.593Z,5.07
2023-03-31T10:28:58.902Z,3.97
2023-03-31T10:39:07.990Z,4.05
2023-03-31T10:49:23.554Z,3.25
2023-03-31T10:59:30.196Z,3.25
2023-03-31T11:09:53.123Z,2.65
2023-03-31T11:20:44.096Z,3.40
2023-03-31T11:31:11.000Z,3.40
2023-03-31T11:41:23.094Z,3.70
2023-03-31T11:51:28.947Z,3.75
2023-03-31T12:01:41.642Z,3.35
2023-03-31T12:11:53.929Z,3.95
2023-03-31T12:22:14.069Z,3.33
2023-03-31T12:32:24.490Z,3.25
2023-03-31T12:42:52.652Z,3.50
2023-03-31T12:53:23.094Z,3.40
2023-03-31T13:03:43.952Z,3.13
2023-03-31T13:14:12.203Z,3.80
2023-03-31T13:24:24.197Z,3.17
2023-03-31T13:34:42.022Z,3.50
2023-03-31T13:45:22.220Z,3.20
2023-03-31T13:55:46.962Z,2.65
2023-03-31T14:06:19.995Z,2.65
2023-03-31T14:16:22.269Z,2.80
2023-03-31T14:26:54.631Z,2.78
2023-03-31T14:37:01.363Z,2.78
2023-03-31T14:47:16.130Z,2.60
2023-03-31T14:57:30.238Z,3.25
2023-03-31T15:07:45.171Z,2.88
2023-03-31T15:17:52.371Z,3.13
2023-03-31T15:28:03.508Z,2.90
2023-03-31T15:38:06.604Z,2.22
2023-03-31T15:48:38.378Z,2.35
2023-03-31T15:58:59.656Z,1.88
2023-03-31T16:09:09.316Z,2.13
2023-03-31T16:19:21.341Z,1.83
2023-03-31T16:29:26.228Z,2.10
2023-03-31T16:39:31.298Z,1.88
2023-03-31T16:49:39.165Z,1.90
2023-03-31T16:59:53.541Z,1.80
2023-03-31T17:09:56.593Z,1.80
2023-03-31T17:20:00.143Z,2.08
2023-03-31T17:30:02.561Z,1.48
2023-03-31T17:40:07.625Z,1.42
2023-03-31T17:50:11.528Z,3.10
2023-03-31T18:00:17.580Z,4.82
2023-03-31T18:10:23.020Z,5.03
2023-03-31T18:20:28.981Z,5.93
2023-03-31T18:30:31.911Z,5.93
2023-03-31T18:40:37.376Z,5.70
2023-03-31T18:50:40.191Z,5.10
2023-03-31T19:00:47.322Z,4.60
2023-03-31T19:11:15.773Z,3.88
2023-03-31T19:21:21.740Z,3.83
2023-03-31T19:31:27.053Z,3.90
2023-03-31T19:41:29.461Z,4.57
2023-03-31T19:51:32.640Z,6.07
2023-03-31T20:01:37.885Z,5.30
2023-03-31T20:11:43.770Z,6.40
2023-03-31T20:21:58.235Z,7.30
2023-03-31T20:32:06.138Z,9.23
2023-03-31T20:42:13.176Z,9.00
2023-03-31T20:52:28.370Z,8.95
2023-03-31T21:02:34.526Z,8.32
2023-03-31T21:12:38.293Z,8.57
2023-03-31T21:22:42.955Z,8.23
2023-03-31T21:32:54.136Z,7.65
2023-03-31T21:42:59.073Z,9.98
2023-03-31T21:53:03.398Z,10.07
2023-03-31T22:03:25.695Z,10.10
2023-03-31T22:13:28.875Z,10.13
2023-03-31T22:23:34.066Z,7.90
2023-03-31T22:33:37.427Z,9.17
2023-03-31T22:43:40.112Z,10.60
2023-03-31T22:53:44.713Z,10.40
2023-03-31T23:03:50.265Z,17.50
2023-03-31T23:13:56.518Z,11.52
2023-03-31T23:24:05.886Z,12.82
2023-03-31T23:34:10.680Z,13.07
2023-03-31T23:44:15.374Z,14.23
2023-03-31T23:54:20.072Z,13.15
